Time;durP1;ratioP1;P1;durP2;ratioP2;P2;SDS_P1;SDS_P2;PMS_P1;PMS_P2;Temp;Humidity;BMP_temperature;BMP_pressure;BME280_temperature;BME280_humidity;BME280_pressure;Samples;Min_cycle;Max_cycle;Signal;HPM_P1;HPM_P2
2021/11/13 06:36:25;;;;;;;14.75;12.02;;;16.20;68.40;;;;;;4881511;24;20056;-74
2021/11/13 06:38:50;;;;;;;17.95;14.70;;;16.20;68.30;;;;;;4865567;29;20053;-75
2021/11/13 06:41:16;;;;;;;18.38;14.60;;;16.20;68.10;;;;;;4882388;29;20097;-75
2021/11/13 06:43:42;;;;;;;17.35;14.50;;;16.20;68.10;;;;;;4882042;29;20462;-73
2021/11/13 06:46:07;;;;;;;19.10;15.30;;;16.10;68.10;;;;;;4881855;29;20064;-72
2021/11/13 06:48:39;;;;;;;24.30;16.92;;;16.10;68.10;;;;;;4880873;29;20048;-79
2021/11/13 06:51:05;;;;;;;21.15;15.57;;;16.10;68.40;;;;;;4881503;29;20049;-72
2021/11/13 06:53:30;;;;;;;65.30;17.20;;;16.10;68.70;;;;;;4881568;29;20049;-71
2021/11/13 06:55:56;;;;;;;17.23;12.82;;;16.00;70.00;;;;;;4881656;29;20049;-73
2021/11/13 06:58:22;;;;;;;21.33;11.45;;;16.00;70.20;;;;;;4877064;29;20140;-73
2021/11/13 07:00:48;;;;;;;24.23;11.40;;;16.10;70.10;;;;;;4880785;29;20049;-72
2021/11/13 07:03:13;;;;;;;16.80;9.52;;;16.30;70.30;;;;;;4882226;29;20048;-72
2021/11/13 07:05:40;;;;;;;24.90;9.40;;;16.60;70.20;;;;;;4881818;29;20541;-71
2021/11/13 07:08:06;;;;;;;17.05;8.55;;;16.80;69.80;;;;;;4881907;29;20448;-72
2021/11/13 07:10:31;;;;;;;12.32;8.10;;;17.00;69.70;;;;;;4881742;29;20095;-73
2021/11/13 07:12:57;;;;;;;17.98;7.35;;;17.10;69.60;;;;;;4874681;29;20089;-72
2021/11/13 07:15:26;;;;;;;11.70;6.95;;;17.10;69.60;;;;;;4847064;29;20057;-73
2021/11/13 07:17:51;;;;;;;17.15;7.65;;;17.20;69.60;;;;;;4863060;29;20569;-74
2021/11/13 07:20:17;;;;;;;19.15;7.63;;;17.30;69.80;;;;;;4847055;29;20129;-72
2021/11/13 07:22:45;;;;;;;16.27;7.47;;;17.30;70.00;;;;;;4863299;29;20421;-72
2021/11/13 07:25:14;;;;;;;13.35;7.60;;;17.30;70.10;;;;;;4862841;29;20089;-74
2021/11/13 07:27:42;;;;;;;15.60;7.40;;;17.30;70.50;;;;;;4863073;29;20057;-75
2021/11/13 07:30:08;;;;;;;21.42;8.18;;;17.30;70.70;;;;;;4863446;29;20380;-74
2021/11/13 07:32:34;;;;;;;21.52;7.72;;;17.30;71.00;;;;;;4862973;29;20049;-75
2021/11/13 07:35:00;;;;;;;17.45;7.97;;;17.30;71.20;;;;;;4863067;29;20431;-75
2021/11/13 07:37:27;;;;;;;17.98;7.50;;;17.30;71.10;;;;;;4862615;29;20081;-74
2021/11/13 07:39:54;;;;;;;13.07;7.40;;;17.30;71.20;;;;;;4862741;29;20123;-74
2021/11/13 07:42:20;;;;;;;13.95;6.93;;;17.40;71.50;;;;;;4862420;29;20053;-75
2021/11/13 07:44:46;;;;;;;17.02;6.30;;;17.40;71.50;;;;;;4863272;29;20054;-74
2021/11/13 07:47:12;;;;;;;14.02;6.25;;;17.50;71.60;;;;;;4868418;29;20555;-80
2021/11/13 07:49:37;;;;;;;17.38;6.97;;;17.60;71.30;;;;;;4864818;29;20137;-77
2021/11/13 07:52:05;;;;;;;13.55;5.65;;;17.80;71.20;;;;;;4864759;29;20056;-76
2021/11/13 07:54:30;;;;;;;14.65;5.85;;;17.80;71.10;;;;;;4881168;29;20049;-75
2021/11/13 07:56:56;;;;;;;10.88;5.25;;;17.90;71.10;;;;;;4880909;29;20453;-76
2021/11/13 07:59:22;;;;;;;15.90;5.65;;;17.90;70.80;;;;;;4880839;29;20057;-74
2021/11/13 08:01:48;;;;;;;11.95;5.00;;;18.00;70.60;;;;;;4864635;29;20076;-76
2021/11/13 08:04:13;;;;;;;15.13;5.18;;;18.10;70.70;;;;;;4881087;29;20085;-74
2021/11/13 08:06:39;;;;;;;13.45;4.75;;;18.20;70.40;;;;;;4881110;29;20057;-75
2021/11/13 08:09:05;;;;;;;14.95;5.30;;;18.20;70.20;;;;;;4881166;29;20132;-75
2021/11/13 08:11:31;;;;;;;12.52;5.28;;;18.20;70.00;;;;;;4880884;29;20452;-74
2021/11/13 08:13:57;;;;;;;12.43;5.32;;;18.20;70.00;;;;;;4880989;29;20045;-74
2021/11/13 08:16:23;;;;;;;14.50;5.30;;;18.20;70.10;;;;;;4881737;29;20108;-75
2021/11/13 08:18:49;;;;;;;18.73;5.72;;;18.20;70.10;;;;;;4880914;29;20053;-75
2021/11/13 08:21:15;;;;;;;17.58;5.57;;;18.20;70.50;;;;;;4864914;29;20064;-75
2021/11/13 08:23:41;;;;;;;18.95;5.72;;;18.00;69.80;;;;;;4881012;29;20452;-76
2021/11/13 08:26:08;;;;;;;16.33;5.35;;;18.00;71.00;;;;;;4880813;29;20049;-73
2021/11/13 08:28:34;;;;;;;25.48;6.05;;;18.00;71.20;;;;;;4865206;29;20060;-73
2021/11/13 08:30:59;;;;;;;19.88;5.47;;;18.00;71.50;;;;;;4881378;29;20431;-74
2021/11/13 08:33:28;;;;;;;21.83;5.25;;;18.10;71.30;;;;;;4880962;29;20049;-70
2021/11/13 08:35:54;;;;;;;18.88;4.97;;;18.20;71.40;;;;;;4880532;29;20069;-73
2021/11/13 08:38:21;;;;;;;26.75;5.30;;;18.30;71.40;;;;;;4880544;29;20061;-72
2021/11/13 08:40:49;;;;;;;14.43;5.90;;;18.00;70.60;;;;;;4880752;29;20468;-73
2021/11/13 08:43:17;;;;;;;15.13;5.55;;;18.10;71.10;;;;;;4880673;29;20135;-71
2021/11/13 08:45:43;;;;;;;17.55;6.00;;;18.20;71.00;;;;;;4882395;29;20053;-72
2021/11/13 08:48:10;;;;;;;14.18;4.85;;;18.30;70.80;;;;;;4884369;29;20126;-73
2021/11/13 08:50:35;;;;;;;12.88;4.70;;;18.40;70.60;;;;;;4884212;29;20049;-78
2021/11/13 08:53:03;;;;;;;13.25;5.88;;;18.40;70.80;;;;;;4867673;29;20135;-78
2021/11/13 08:55:31;;;;;;;10.40;5.43;;;17.70;70.20;;;;;;4867943;29;20108;-78
2021/11/13 08:57:58;;;;;;;15.20;4.70;;;17.90;71.40;;;;;;4859439;29;20080;-80
2021/11/13 09:00:40;;;;;;;13.50;6.45;;;18.10;71.50;;;;;;4867843;29;20049;-76
2021/11/13 09:03:09;;;;;;;16.38;5.32;;;18.00;67.00;;;;;;4867419;29;20041;-74
2021/11/13 09:05:35;;;;;;;14.23;5.30;;;17.80;70.80;;;;;;4867249;29;20132;-73
2021/11/13 09:08:01;;;;;;;16.17;4.93;;;17.90;71.40;;;;;;4883861;29;20127;-74
2021/11/13 09:10:28;;;;;;;16.08;5.53;;;17.90;71.40;;;;;;4863698;29;20045;-73
2021/11/13 09:12:55;;;;;;;12.30;5.30;;;18.00;71.40;;;;;;4877616;29;20052;-77
2021/11/13 09:15:25;;;;;;;14.95;5.10;;;18.00;71.20;;;;;;4883755;29;20045;-74
2021/11/13 09:17:52;;;;;;;11.30;4.88;;;18.10;71.20;;;;;;4883648;29;20052;-75
2021/11/13 09:20:19;;;;;;;12.18;4.85;;;18.10;71.10;;;;;;4867315;29;20113;-75
2021/11/13 09:22:45;;;;;;;12.80;5.57;;;18.10;71.10;;;;;;4883475;29;20049;-76
2021/11/13 09:25:11;;;;;;;14.55;4.82;;;18.00;70.70;;;;;;4867504;29;20057;-75
2021/11/13 09:27:39;;;;;;;11.63;4.28;;;18.10;71.30;;;;;;4867496;29;20105;-76
2021/11/13 09:30:08;;;;;;;12.13;4.93;;;18.10;71.30;;;;;;4867266;29;20140;-78
2021/11/13 09:32:34;;;;;;;15.43;5.13;;;18.10;71.30;;;;;;4866969;29;20133;-76
2021/11/13 09:35:02;;;;;;;12.23;5.15;;;18.10;71.70;;;;;;4883072;29;20056;-75
2021/11/13 09:37:29;;;;;;;13.07;4.55;;;18.10;71.70;;;;;;4882897;29;20061;-78
2021/11/13 09:39:55;;;;;;;13.63;4.88;;;18.10;71.70;;;;;;4860794;29;20061;-74
2021/11/13 09:42:23;;;;;;;10.13;4.60;;;18.10;71.50;;;;;;4860861;29;20045;-77
2021/11/13 09:44:52;;;;;;;11.98;4.53;;;18.10;71.50;;;;;;4864067;29;20053;-78
2021/11/13 09:47:18;;;;;;;13.02;5.18;;;18.10;71.10;;;;;;4838659;29;20512;-79
2021/11/13 09:49:44;;;;;;;15.77;4.80;;;18.10;70.90;;;;;;4865991;29;20128;-78
2021/11/13 09:52:13;;;;;;;20.98;4.18;;;18.10;71.20;;;;;;4865951;29;20084;-79
2021/11/13 09:54:40;;;;;;;13.60;3.80;;;18.10;71.40;;;;;;4866177;29;20095;-79
2021/11/13 09:57:06;;;;;;;15.40;4.05;;;18.10;71.40;;;;;;4866497;29;20051;-76
2021/11/13 09:59:33;;;;;;;16.48;3.50;;;18.10;71.50;;;;;;4882899;29;20092;-77
2021/11/13 10:01:59;;;;;;;20.65;4.05;;;18.20;71.50;;;;;;4864481;29;20063;-81
2021/11/13 10:04:24;;;;;;;14.15;3.08;;;18.20;71.40;;;;;;4866126;29;20040;-79
2021/11/13 10:06:50;;;;;;;20.48;4.10;;;18.20;71.30;;;;;;4866032;29;20198;-75
2021/11/13 10:09:16;;;;;;;13.07;3.53;;;18.30;71.20;;;;;;4882574;29;20052;-83
2021/11/13 10:11:48;;;;;;;14.63;3.55;;;18.30;71.00;;;;;;4882869;29;20052;-79
2021/11/13 10:14:14;;;;;;;12.00;3.80;;;18.40;71.00;;;;;;4850740;29;20140;-80
2021/11/13 10:16:59;;;;;;;19.25;4.25;;;18.50;70.90;;;;;;4866317;29;20112;-79
2021/11/13 10:19:27;;;;;;;12.27;3.25;;;18.50;70.70;;;;;;4865856;29;20053;-80
2021/11/13 10:22:03;;;;;;;12.75;3.53;;;18.50;70.70;;;;;;4865920;29;20049;-81
2021/11/13 10:24:29;;;;;;;14.25;3.53;;;18.60;70.70;;;;;;4850909;29;20132;-80
2021/11/13 10:26:58;;;;;;;13.35;3.22;;;18.60;70.60;;;;;;4865800;29;20128;-77
2021/11/13 10:29:30;;;;;;;14.55;4.32;;;18.60;70.40;;;;;;4850617;29;20061;-74
2021/11/13 10:32:09;;;;;;;12.15;3.53;;;18.70;70.30;;;;;;4882417;29;20052;-76
2021/11/13 10:34:38;;;;;;;12.90;3.85;;;18.70;69.80;;;;;;4860302;29;20484;-77
2021/11/13 10:37:10;;;;;;;12.27;4.00;;;18.70;70.10;;;;;;4881896;29;20380;-76
2021/11/13 10:39:39;;;;;;;14.43;6.35;;;18.70;70.10;;;;;;4881702;29;20052;-77
2021/11/13 10:42:06;;;;;;;12.13;4.75;;;18.70;71.10;;;;;;4882021;29;20053;-79
2021/11/13 10:47:31;;;;;;;14.52;6.22;;;18.60;71.10;;;;;;4846363;29;20365;-81
2021/11/13 10:50:18;;;;;;;12.60;5.80;;;18.60;71.50;;;;;;4850008;29;20116;-82
2021/11/13 10:53:08;;;;;;;13.95;6.30;;;18.70;70.40;;;;;;4848931;29;20037;-83
2021/11/13 10:55:39;;;;;;;14.45;6.05;;;18.60;70.00;;;;;;4850302;29;20104;-78
2021/11/13 10:58:39;;;;;;;16.92;8.63;;;18.60;70.10;;;;;;4865334;29;20121;-82
2021/11/13 11:01:11;;;;;;;14.43;7.68;;;18.60;70.10;;;;;;4879983;29;20048;-83
2021/11/13 11:04:01;;;;;;;13.13;7.18;;;18.50;69.80;;;;;;4857166;29;20059;-82
2021/11/13 11:06:32;;;;;;;13.48;7.57;;;18.50;69.40;;;;;;4849749;29;20464;-82
2021/11/13 11:08:59;;;;;;;14.40;7.63;;;18.50;69.40;;;;;;4849303;29;20044;-79
2021/11/13 11:11:39;;;;;;;14.10;6.97;;;18.40;68.70;;;;;;4881142;29;20116;-76
2021/11/13 11:14:10;;;;;;;17.30;9.43;;;18.40;68.40;;;;;;4881626;29;20366;-76
2021/11/13 11:16:48;;;;;;;10.85;6.07;;;18.30;68.80;;;;;;4865140;29;20091;-76
2021/11/13 11:19:16;;;;;;;14.30;5.32;;;18.30;68.60;;;;;;4881605;29;20045;-77
2021/11/13 11:21:45;;;;;;;13.10;6.05;;;18.20;68.90;;;;;;4865387;29;20041;-77
2021/11/13 11:24:12;;;;;;;11.60;5.47;;;18.10;69.30;;;;;;4865155;29;20108;-76
2021/11/13 11:26:39;;;;;;;11.13;5.43;;;18.10;69.50;;;;;;4881389;29;20048;-78
2021/11/13 11:29:06;;;;;;;9.65;5.20;;;18.00;69.90;;;;;;4863770;29;20061;-78
2021/11/13 11:31:51;;;;;;;8.77;4.72;;;18.10;70.00;;;;;;4881209;29;20444;-78
2021/11/13 11:34:21;;;;;;;10.05;4.75;;;18.00;70.20;;;;;;4865255;29;20064;-83
2021/11/13 11:36:47;;;;;;;13.13;5.47;;;18.00;70.50;;;;;;4864706;29;20092;-76
2021/11/13 11:39:14;;;;;;;11.27;5.43;;;18.00;70.50;;;;;;4880963;29;20479;-80
2021/11/13 11:41:40;;;;;;;10.55;5.45;;;18.00;70.50;;;;;;4880491;29;20060;-74
2021/11/13 11:44:06;;;;;;;13.35;6.78;;;18.00;70.10;;;;;;4881360;29;20049;-74
2021/11/13 11:46:32;;;;;;;11.27;6.15;;;18.00;70.00;;;;;;4881852;29;20045;-81
2021/11/13 11:48:59;;;;;;;10.82;6.03;;;18.00;69.70;;;;;;4865307;29;20045;-75
2021/11/13 11:51:25;;;;;;;10.38;5.63;;;18.00;69.50;;;;;;4878914;29;20052;-75
2021/11/13 11:53:52;;;;;;;11.40;5.65;;;18.00;69.40;;;;;;4881322;29;20057;-75
2021/11/13 11:56:19;;;;;;;18.95;6.22;;;18.00;69.40;;;;;;4881354;29;20056;-76
2021/11/13 11:58:45;;;;;;;11.02;6.18;;;18.10;69.50;;;;;;4881053;29;20053;-76
2021/11/13 12:01:33;;;;;;;9.68;6.35;;;18.10;69.40;;;;;;4880784;29;20208;-75
2021/11/13 12:04:15;;;;;;;14.10;7.18;;;18.10;69.30;;;;;;4846285;29;20058;-75
2021/11/13 12:06:52;;;;;;;13.32;6.57;;;18.10;69.20;;;;;;4862746;29;20057;-75
2021/11/13 12:09:18;;;;;;;15.05;6.88;;;18.00;69.20;;;;;;4862746;29;20049;-75
2021/11/13 12:11:44;;;;;;;11.50;6.93;;;18.10;69.20;;;;;;4865843;29;20092;-77
2021/11/13 12:14:46;;;;;;;11.20;6.90;;;18.00;69.20;;;;;;4865345;29;20045;-72
2021/11/13 12:17:23;;;;;;;9.80;5.72;;;17.90;69.20;;;;;;4787039;29;20070;-76
2021/11/13 12:20:04;;;;;;;12.20;5.80;;;17.90;69.50;;;;;;4872066;29;20422;-78
2021/11/13 12:22:42;;;;;;;9.90;5.15;;;17.80;69.70;;;;;;4884204;29;20045;-75
2021/11/13 12:25:19;;;;;;;13.48;5.93;;;17.70;70.00;;;;;;4884411;29;20041;-75
2021/11/13 12:28:15;;;;;;;10.73;5.13;;;17.70;70.20;;;;;;4884376;29;20108;-75
2021/11/13 12:31:01;;;;;;;14.43;5.53;;;17.70;70.90;;;;;;4884636;29;20064;-76
2021/11/13 12:33:27;;;;;;;11.68;5.63;;;17.70;70.40;;;;;;4884432;29;20121;-75
2021/11/13 12:35:54;;;;;;;13.75;5.93;;;17.70;70.40;;;;;;4884502;29;20064;-74
2021/11/13 12:38:40;;;;;;;15.73;6.28;;;17.70;70.40;;;;;;4839841;29;20053;-76
2021/11/13 12:41:13;;;;;;;12.27;5.10;;;17.70;70.30;;;;;;4868577;29;20049;-72
2021/11/13 12:44:00;;;;;;;15.00;5.60;;;17.70;70.40;;;;;;4883636;29;20053;-79
2021/11/13 12:46:44;;;;;;;10.50;5.97;;;17.60;70.40;;;;;;4867808;29;20068;-81
2021/11/13 12:49:35;;;;;;;15.35;6.38;;;17.60;70.50;;;;;;4856278;29;20057;-81
2021/11/13 12:52:06;;;;;;;14.95;6.63;;;17.60;70.40;;;;;;4847219;29;20362;-79
2021/11/13 12:54:33;;;;;;;14.85;7.05;;;17.70;70.40;;;;;;4883847;29;20516;-79
2021/11/13 12:57:03;;;;;;;14.75;7.10;;;17.60;70.40;;;;;;4884215;29;20135;-78
2021/11/13 12:59:39;;;;;;;12.85;8.05;;;17.60;70.40;;;;;;4867244;29;20126;-78
2021/11/13 13:02:07;;;;;;;16.20;8.70;;;17.60;70.40;;;;;;4868140;29;20037;-77
2021/11/13 13:04:35;;;;;;;16.05;9.05;;;17.70;70.20;;;;;;4858260;29;20056;-73
2021/11/13 13:07:03;;;;;;;19.10;9.75;;;17.70;70.20;;;;;;4868507;29;20038;-74
2021/11/13 13:09:29;;;;;;;17.25;10.13;;;17.60;70.00;;;;;;4848014;29;20049;-73
2021/11/13 13:12:01;;;;;;;15.93;10.43;;;17.60;69.80;;;;;;4867766;29;20112;-73
2021/11/13 13:14:35;;;;;;;14.52;9.02;;;17.60;69.60;;;;;;4857393;29;20137;-73
2021/11/13 13:17:03;;;;;;;16.30;9.27;;;17.60;69.60;;;;;;4846429;29;20050;-74
2021/11/13 13:19:34;;;;;;;15.00;9.80;;;17.60;69.60;;;;;;4846715;29;20062;-73
2021/11/13 13:22:07;;;;;;;14.60;10.20;;;17.60;69.60;;;;;;4853162;29;20465;-73
2021/11/13 13:24:33;;;;;;;13.13;9.35;;;17.60;69.40;;;;;;4880583;29;20099;-73
2021/11/13 13:27:09;;;;;;;12.82;8.77;;;17.60;69.40;;;;;;4851233;29;20053;-73
2021/11/13 13:29:36;;;;;;;18.80;8.90;;;17.60;69.50;;;;;;4852068;29;20072;-71
2021/11/13 13:32:14;;;;;;;15.68;7.45;;;17.60;69.70;;;;;;4859506;29;20053;-72
2021/11/13 13:34:53;;;;;;;15.18;7.20;;;17.50;70.10;;;;;;4883676;29;20117;-74
2021/11/13 13:37:21;;;;;;;15.43;7.03;;;17.50;70.40;;;;;;4866676;29;20215;-76
2021/11/13 13:39:52;;;;;;;9.57;5.78;;;17.40;70.70;;;;;;4883432;29;20440;-74
2021/11/13 13:42:19;;;;;;;22.70;7.35;;;17.40;71.00;;;;;;4877593;29;20052;-74
2021/11/13 13:44:46;;;;;;;17.23;6.88;;;17.40;71.20;;;;;;4871544;29;20105;-75
2021/11/13 13:47:12;;;;;;;13.50;5.78;;;17.40;71.50;;;;;;4864797;29;20153;-73
2021/11/13 13:49:39;;;;;;;12.88;5.28;;;17.30;71.70;;;;;;4864390;29;20052;-74
2021/11/13 13:52:09;;;;;;;12.02;4.65;;;17.30;71.80;;;;;;4864278;29;20471;-75
2021/11/13 13:54:39;;;;;;;14.93;6.95;;;17.30;72.20;;;;;;4867678;29;20049;-74
2021/11/13 13:57:10;;;;;;;17.83;9.95;;;17.30;72.20;;;;;;4848251;29;20064;-74
2021/11/13 13:59:42;;;;;;;15.23;9.90;;;17.30;71.80;;;;;;4863936;29;20101;-75
2021/11/13 14:02:14;;;;;;;14.93;10.05;;;17.40;71.20;;;;;;4863225;29;20057;-74
2021/11/13 14:04:43;;;;;;;15.73;9.82;;;17.40;70.60;;;;;;4864212;29;20485;-74
2021/11/13 14:07:18;;;;;;;14.63;9.35;;;17.40;69.80;;;;;;4864375;29;20140;-76
2021/11/13 14:10:08;;;;;;;12.25;7.28;;;17.30;70.40;;;;;;4864518;29;20045;-75
2021/11/13 14:12:51;;;;;;;11.68;6.95;;;17.10;70.90;;;;;;4864109;29;20053;-76
2021/11/13 14:15:30;;;;;;;11.25;6.90;;;16.90;71.40;;;;;;4847767;29;20057;-74
2021/11/13 14:18:13;;;;;;;10.50;6.65;;;16.80;71.80;;;;;;4864096;29;20132;-74
2021/11/13 14:20:44;;;;;;;10.38;6.10;;;16.70;72.30;;;;;;4864365;29;20128;-75
2021/11/13 14:23:22;;;;;;;11.50;6.50;;;16.60;72.60;;;;;;4847940;29;20450;-74
2021/11/13 14:25:58;;;;;;;11.70;6.97;;;16.50;72.90;;;;;;4863954;29;20088;-73
2021/11/13 14:28:33;;;;;;;12.15;5.75;;;16.50;73.00;;;;;;4864051;29;20121;-75
2021/11/13 14:31:01;;;;;;;14.27;8.55;;;16.40;73.50;;;;;;4867019;29;20055;-75
2021/11/13 14:33:27;;;;;;;17.27;10.57;;;16.50;73.70;;;;;;4863597;29;20081;-75
2021/11/13 14:35:53;;;;;;;15.15;10.75;;;16.50;72.60;;;;;;4866629;29;20053;-76
2021/11/13 14:38:20;;;;;;;12.15;7.95;;;16.60;72.40;;;;;;4882041;29;20096;-75
2021/11/13 14:40:54;;;;;;;10.25;7.45;;;16.60;72.70;;;;;;4882588;29;20104;-75
2021/11/13 14:43:23;;;;;;;12.25;8.07;;;16.50;72.80;;;;;;4881510;29;20124;-76
2021/11/13 14:45:49;;;;;;;10.93;7.60;;;16.50;73.00;;;;;;4882041;29;20048;-76
2021/11/13 14:48:17;;;;;;;16.35;7.43;;;16.40;73.00;;;;;;4882077;29;20127;-74
2021/11/13 14:50:43;;;;;;;11.13;5.90;;;16.50;73.30;;;;;;4881877;29;20338;-74
2021/11/13 14:53:12;;;;;;;9.98;6.00;;;16.50;73.30;;;;;;4882011;29;20464;-74
2021/11/13 14:55:39;;;;;;;10.68;5.63;;;16.60;73.50;;;;;;4881828;29;20056;-74
2021/11/13 14:58:06;;;;;;;12.48;5.78;;;16.70;73.50;;;;;;4882156;29;20057;-75
2021/11/13 15:00:39;;;;;;;12.63;5.85;;;16.80;73.20;;;;;;4881584;29;20049;-74
2021/11/13 15:03:15;;;;;;;11.32;4.75;;;17.00;72.90;;;;;;4881824;29;20051;-73
2021/11/13 15:05:45;;;;;;;8.50;4.13;;;17.10;72.70;;;;;;4882005;29;20053;-75
2021/11/13 15:08:32;;;;;;;6.85;4.10;;;17.30;72.30;;;;;;4882245;29;20124;-73
2021/11/13 15:11:05;;;;;;;8.27;4.00;;;17.40;72.30;;;;;;4865175;29;20076;-72
2021/11/13 15:13:35;;;;;;;13.63;4.03;;;17.60;72.10;;;;;;4881768;29;20068;-74
2021/11/13 15:16:23;;;;;;;11.82;3.95;;;17.60;71.90;;;;;;4881702;29;20049;-72
2021/11/13 15:18:56;;;;;;;9.70;4.22;;;17.70;72.00;;;;;;4878544;29;20048;-73
2021/11/13 15:21:24;;;;;;;13.15;4.90;;;17.80;71.90;;;;;;4881169;29;20063;-73
2021/11/13 15:23:51;;;;;;;14.18;4.07;;;17.80;72.10;;;;;;4865978;29;20127;-75
2021/11/13 15:26:22;;;;;;;11.93;3.85;;;17.90;72.40;;;;;;4881580;29;20433;-74
2021/11/13 15:28:48;;;;;;;9.82;3.75;;;17.90;72.70;;;;;;4881276;29;20122;-76
2021/11/13 15:31:29;;;;;;;12.48;4.18;;;17.90;72.80;;;;;;4881607;29;20053;-76
2021/11/13 15:33:56;;;;;;;9.27;3.65;;;17.90;73.10;;;;;;4880962;29;20059;-75
2021/11/13 15:36:22;;;;;;;10.07;3.40;;;18.00;73.10;;;;;;4881446;29;20049;-76
2021/11/13 15:38:49;;;;;;;8.88;3.35;;;18.10;73.10;;;;;;4878777;29;20124;-74
2021/11/13 15:41:18;;;;;;;10.38;3.63;;;18.20;73.00;;;;;;4881349;29;20049;-75
2021/11/13 15:43:52;;;;;;;12.70;3.35;;;18.30;72.80;;;;;;4865646;29;20056;-77
2021/11/13 15:46:23;;;;;;;15.15;3.53;;;18.40;72.60;;;;;;4880758;29;20060;-76
2021/11/13 15:48:51;;;;;;;8.88;3.58;;;18.40;72.40;;;;;;4880148;29;20092;-75
2021/11/13 15:51:18;;;;;;;9.60;3.17;;;18.50;72.30;;;;;;4881155;29;20048;-77
2021/11/13 15:54:00;;;;;;;10.10;2.95;;;18.50;72.30;;;;;;4881787;29;20430;-77
2021/11/13 15:56:29;;;;;;;8.95;4.13;;;18.70;72.40;;;;;;4884634;29;20044;-76
2021/11/13 15:58:57;;;;;;;6.85;3.67;;;18.70;71.70;;;;;;4884633;29;20131;-76
2021/11/13 16:01:29;;;;;;;9.77;3.42;;;18.70;71.60;;;;;;4884762;29;20067;-76
2021/11/13 16:03:56;;;;;;;11.82;3.45;;;18.70;71.70;;;;;;4885731;29;20136;-77
2021/11/13 16:06:21;;;;;;;9.70;3.55;;;18.80;72.60;;;;;;4885238;29;20084;-75
2021/11/13 16:08:47;;;;;;;8.35;3.83;;;18.80;72.20;;;;;;4885234;29;20085;-78
2021/11/13 16:11:13;;;;;;;11.43;3.70;;;18.80;72.20;;;;;;4884682;29;20492;-76
2021/11/13 16:13:41;;;;;;;10.43;3.40;;;18.80;72.20;;;;;;4884853;29;20052;-77
2021/11/13 16:16:08;;;;;;;8.88;3.45;;;18.80;71.50;;;;;;4868293;29;20060;-77
2021/11/13 16:18:34;;;;;;;7.47;3.00;;;18.80;72.10;;;;;;4884590;29;20053;-77
2021/11/13 16:21:01;;;;;;;7.35;2.85;;;18.80;72.10;;;;;;4884724;29;20155;-77
2021/11/13 16:23:27;;;;;;;5.80;2.85;;;18.80;72.10;;;;;;4884263;29;20049;-77
2021/11/13 16:25:55;;;;;;;9.02;2.80;;;18.80;72.10;;;;;;4868253;29;20057;-77
2021/11/13 16:28:23;;;;;;;5.53;2.90;;;18.80;71.90;;;;;;4884453;29;20124;-76
2021/11/13 16:30:50;;;;;;;6.05;2.97;;;18.80;71.80;;;;;;4884540;29;20053;-77
2021/11/13 16:33:17;;;;;;;6.55;3.05;;;18.80;71.70;;;;;;4884149;29;20527;-75
2021/11/13 16:35:42;;;;;;;8.25;2.80;;;18.80;71.70;;;;;;4867842;29;20384;-77
2021/11/13 16:38:10;;;;;;;6.00;2.70;;;18.80;71.60;;;;;;4884591;29;20057;-77
2021/11/13 16:40:59;;;;;;;8.32;2.90;;;18.80;71.60;;;;;;4883556;29;20466;-76
2021/11/13 16:43:30;;;;;;;6.97;2.97;;;18.80;71.60;;;;;;4882833;29;20057;-78
2021/11/13 16:46:01;;;;;;;9.90;2.97;;;18.70;71.60;;;;;;4841358;29;20128;-77
2021/11/13 16:48:30;;;;;;;4.97;2.45;;;18.80;71.70;;;;;;4867673;29;20105;-81
2021/11/13 16:50:57;;;;;;;8.48;3.08;;;18.70;71.60;;;;;;4883934;29;20045;-78
2021/11/13 16:53:24;;;;;;;6.43;2.85;;;18.70;71.60;;;;;;4867957;29;20346;-79
2021/11/13 16:55:57;;;;;;;12.98;2.80;;;18.70;71.70;;;;;;4868046;29;20444;-77
2021/11/13 16:58:25;;;;;;;5.70;2.85;;;18.70;71.70;;;;;;4884810;29;20148;-79
2021/11/13 17:00:52;;;;;;;9.05;3.40;;;18.70;72.10;;;;;;4883648;29;20132;-79
2021/11/13 17:03:18;;;;;;;9.15;3.20;;;18.70;72.00;;;;;;4867951;29;20056;-78
2021/11/13 17:05:44;;;;;;;7.72;3.00;;;18.70;72.40;;;;;;4882335;29;20132;-78
2021/11/13 17:08:10;;;;;;;9.88;3.13;;;18.70;72.60;;;;;;4884042;29;20045;-77
2021/11/13 17:10:37;;;;;;;11.10;3.42;;;18.60;72.70;;;;;;4868039;29;20117;-78
2021/11/13 17:13:04;;;;;;;11.32;3.10;;;18.60;73.00;;;;;;4884185;29;20429;-78
2021/11/13 17:15:30;;;;;;;7.53;3.00;;;18.60;73.50;;;;;;4883681;29;20369;-78
2021/11/13 17:17:56;;;;;;;6.32;3.22;;;18.60;73.50;;;;;;4883691;29;20045;-78
2021/11/13 17:20:22;;;;;;;10.40;3.95;;;18.50;73.80;;;;;;4883625;29;20484;-78
2021/11/13 17:22:50;;;;;;;6.93;2.92;;;18.50;73.40;;;;;;4883368;29;20136;-77
2021/11/13 17:25:17;;;;;;;9.32;3.55;;;18.30;73.70;;;;;;4882889;29;20121;-78
2021/11/13 17:27:44;;;;;;;9.13;3.53;;;18.30;73.90;;;;;;4883507;29;20072;-78
2021/11/13 17:30:13;;;;;;;10.07;3.55;;;18.30;73.90;;;;;;4883612;29;20055;-78
2021/11/13 17:32:40;;;;;;;7.72;3.05;;;18.30;74.00;;;;;;4883358;29;20492;-78
2021/11/13 17:35:07;;;;;;;10.75;3.60;;;18.30;74.00;;;;;;4883550;29;20049;-78
2021/11/13 17:37:35;;;;;;;9.38;3.30;;;18.30;73.90;;;;;;4867520;29;20105;-77
2021/11/13 17:40:05;;;;;;;16.98;3.85;;;18.30;73.90;;;;;;4866909;29;20057;-78
2021/11/13 17:42:33;;;;;;;8.68;3.53;;;18.30;73.90;;;;;;4883528;29;20063;-77
2021/11/13 17:44:59;;;;;;;6.47;2.90;;;18.30;73.90;;;;;;4882827;29;20044;-77
2021/11/13 17:47:25;;;;;;;9.30;3.30;;;18.20;73.90;;;;;;4883192;29;20045;-78
2021/11/13 17:49:51;;;;;;;8.65;3.70;;;18.20;73.90;;;;;;4882801;29;20384;-79
2021/11/13 17:52:17;;;;;;;7.93;3.20;;;18.20;74.00;;;;;;4883088;29;20360;-78
2021/11/13 17:54:49;;;;;;;7.95;3.10;;;18.10;73.90;;;;;;4882924;29;20057;-77
2021/11/13 17:57:16;;;;;;;6.90;2.83;;;18.10;73.80;;;;;;4866583;29;20049;-76
2021/11/13 17:59:47;;;;;;;8.57;3.20;;;18.10;73.80;;;;;;4866205;29;20064;-77
2021/11/13 18:02:17;;;;;;;9.68;3.70;;;18.10;73.80;;;;;;4882192;29;20052;-79
2021/11/13 18:04:44;;;;;;;7.50;3.47;;;18.10;73.80;;;;;;4866517;29;20056;-76
2021/11/13 18:07:10;;;;;;;9.68;3.35;;;18.10;73.60;;;;;;4882828;29;20055;-77
2021/11/13 18:09:37;;;;;;;9.95;3.63;;;18.00;73.60;;;;;;4883457;29;20128;-77
2021/11/13 18:12:04;;;;;;;10.82;3.70;;;18.00;73.70;;;;;;4882775;29;20460;-75
2021/11/13 18:14:30;;;;;;;11.27;3.78;;;18.00;73.90;;;;;;4883066;29;20053;-75
2021/11/13 18:16:56;;;;;;;9.05;3.53;;;18.00;73.90;;;;;;4882759;29;20049;-76
2021/11/13 18:19:23;;;;;;;13.18;4.35;;;18.00;73.80;;;;;;4882452;29;20433;-77
2021/11/13 18:21:50;;;;;;;9.30;4.22;;;17.90;73.70;;;;;;4864410;29;20362;-76
2021/11/13 18:24:16;;;;;;;8.55;3.65;;;17.90;73.70;;;;;;4873768;29;20053;-76
2021/11/13 18:26:43;;;;;;;10.15;4.18;;;17.90;74.30;;;;;;4878344;29;20473;-76
2021/11/13 18:29:10;;;;;;;7.68;3.47;;;17.90;73.80;;;;;;4882644;29;20052;-76
2021/11/13 18:31:37;;;;;;;11.15;4.72;;;17.90;73.80;;;;;;4882128;29;20049;-76
2021/11/13 18:34:02;;;;;;;7.40;4.10;;;17.90;73.90;;;;;;4882426;29;20053;-77
2021/11/13 18:36:28;;;;;;;12.77;3.88;;;17.90;73.90;;;;;;4882289;29;20208;-76
2021/11/13 18:38:54;;;;;;;8.07;3.63;;;17.90;74.00;;;;;;4880286;29;20181;-76
2021/11/13 18:41:20;;;;;;;7.45;3.90;;;17.90;74.10;;;;;;4876008;29;20052;-76
2021/11/13 18:43:45;;;;;;;9.02;4.32;;;17.80;73.90;;;;;;4882112;29;20132;-77
2021/11/13 18:46:12;;;;;;;8.82;4.25;;;17.80;73.80;;;;;;4881595;29;20112;-77
2021/11/13 18:48:38;;;;;;;10.90;3.67;;;17.80;73.90;;;;;;4882210;29;20089;-76
2021/11/13 18:51:10;;;;;;;7.07;4.00;;;17.80;74.00;;;;;;4882797;29;20390;-77
2021/11/13 18:53:37;;;;;;;7.68;3.75;;;17.80;73.90;;;;;;4865616;29;20049;-76
2021/11/13 18:56:03;;;;;;;7.20;3.63;;;17.80;74.00;;;;;;4882089;29;20126;-77
2021/11/13 18:58:30;;;;;;;10.02;3.85;;;17.80;74.00;;;;;;4882104;29;20457;-76
2021/11/13 19:00:59;;;;;;;10.43;3.60;;;17.80;74.10;;;;;;4881731;29;20136;-77
2021/11/13 19:03:25;;;;;;;7.22;3.60;;;17.80;74.10;;;;;;4881942;29;20060;-77
2021/11/13 19:05:51;;;;;;;9.18;4.30;;;17.70;74.20;;;;;;4881627;29;20048;-77
2021/11/13 19:08:18;;;;;;;11.52;6.40;;;17.80;73.90;;;;;;4881636;29;20045;-77
2021/11/13 19:10:45;;;;;;;14.65;6.95;;;17.80;72.80;;;;;;4871604;29;20108;-77
2021/11/13 19:13:11;;;;;;;11.85;8.05;;;17.70;72.10;;;;;;4881630;29;20045;-76
2021/11/13 19:15:39;;;;;;;12.25;8.68;;;17.70;71.30;;;;;;4865349;29;20104;-73
2021/11/13 19:18:07;;;;;;;9.70;8.18;;;17.70;70.80;;;;;;4880985;29;20045;-79
2021/11/13 19:20:33;;;;;;;14.40;9.73;;;17.60;70.50;;;;;;4881635;29;20489;-77
2021/11/13 19:22:59;;;;;;;11.32;8.98;;;17.60;70.30;;;;;;4881548;29;20096;-77
2021/11/13 19:25:25;;;;;;;13.90;9.23;;;17.50;70.10;;;;;;4865314;29;20135;-76
2021/11/13 19:27:51;;;;;;;11.05;9.25;;;17.50;70.00;;;;;;4865746;29;20049;-76